Terminal Aerodrome Forecast
Issued by NWS

Home | Current Version | Previous Version | Text Only | Print | Product List | Glossary On
Versions: 1 2 3 4 5 6 7 8 9 10 11 12 13 14
000
FTUS42 TJSJ 301700
TAFJPS
TAF
TJPS 301738Z 3018/3118 14013KT P6SM VCSH FEW030
      TEMPO 3018/3020 SHRA SCT030
     FM302350 VRB04KT P6SM FEW030
     FM311500 13012KT P6SM FEW030 SCT060
      AMD NOT SKED TIL 310300=

USA.gov is the U.S. government's official web portal to all federal, state and local government web resources and services.